Time;durP1;ratioP1;P1;durP2;ratioP2;P2;SDS_P1;SDS_P2;PMS_P1;PMS_P2;Temp;Humidity;BMP_temperature;BMP_pressure;BME280_temperature;BME280_humidity;BME280_pressure;Samples;Min_cycle;Max_cycle;Signal;HPM_P1;HPM_P2
2022/08/20 00:01:00;;;;;;;4.03;3.40;;;26.90;56.40;;;;;;4945233;28;20443;-46
2022/08/20 00:03:31;;;;;;;5.27;4.87;;;27.00;55.50;;;;;;4949888;28;20455;-47
2022/08/20 00:06:04;;;;;;;5.27;4.80;;;26.90;56.10;;;;;;4948596;28;20475;-49
2022/08/20 00:08:30;;;;;;;3.50;3.30;;;26.80;56.40;;;;;;4944412;28;20455;-46
2022/08/20 00:10:57;;;;;;;3.23;3.03;;;26.90;55.40;;;;;;4943438;28;20796;-46
2022/08/20 00:13:27;;;;;;;3.90;3.67;;;26.90;55.70;;;;;;4951202;28;20600;-47
2022/08/20 00:15:53;;;;;;;3.83;3.63;;;26.90;55.10;;;;;;4944342;28;20439;-46
2022/08/20 00:18:20;;;;;;;4.10;3.80;;;26.80;55.80;;;;;;4942825;28;20487;-49
2022/08/20 00:20:49;;;;;;;4.33;3.93;;;26.80;56.40;;;;;;4942017;28;20347;-48
2022/08/20 00:23:16;;;;;;;4.30;4.00;;;26.60;56.50;;;;;;4947985;29;20456;-49
2022/08/20 00:25:43;;;;;;;3.90;3.63;;;26.70;56.40;;;;;;4948850;28;20502;-50
2022/08/20 00:28:10;;;;;;;3.70;3.17;;;26.70;56.40;;;;;;4949221;28;20448;-46
2022/08/20 00:30:38;;;;;;;5.50;3.50;;;26.60;56.60;;;;;;4949633;28;20443;-50
2022/08/20 00:33:07;;;;;;;3.83;3.37;;;26.70;56.10;;;;;;4948813;28;20490;-49
2022/08/20 00:35:36;;;;;;;3.60;3.30;;;26.60;56.60;;;;;;4949478;28;20462;-49
2022/08/20 00:38:03;;;;;;;2.93;2.73;;;26.70;56.50;;;;;;4947943;28;20498;-49
2022/08/20 00:40:51;;;;;;;3.00;2.80;;;26.60;56.30;;;;;;4950386;28;20450;-46
2022/08/20 00:43:37;;;;;;;4.50;3.00;;;26.60;56.20;;;;;;4949143;28;20459;-49
2022/08/20 00:46:19;;;;;;;7.50;3.27;;;26.60;56.40;;;;;;4946923;28;20475;-47
2022/08/20 00:48:47;;;;;;;3.80;3.07;;;26.40;56.90;;;;;;4950699;28;20455;-46
2022/08/20 00:51:17;;;;;;;3.33;3.13;;;26.20;57.20;;;;;;4950582;28;20440;-49
2022/08/20 00:53:43;;;;;;;2.87;2.67;;;26.20;57.40;;;;;;4950017;28;20432;-45
2022/08/20 00:56:11;;;;;;;2.30;2.20;;;26.10;57.50;;;;;;4950746;28;20447;-48
2022/08/20 00:58:38;;;;;;;2.80;2.60;;;26.10;57.60;;;;;;4951218;28;20544;-47
2022/08/20 01:01:05;;;;;;;2.43;2.10;;;26.10;57.60;;;;;;4947644;28;20530;-50
2022/08/20 01:03:32;;;;;;;4.07;2.80;;;26.10;57.30;;;;;;4948743;28;20444;-45
2022/08/20 01:05:57;;;;;;;3.03;2.70;;;26.20;57.30;;;;;;4950218;28;20443;-46
2022/08/20 01:08:25;;;;;;;2.40;2.20;;;26.10;57.20;;;;;;4953100;28;21072;-50
2022/08/20 01:11:03;;;;;;;2.53;2.33;;;26.20;57.00;;;;;;4954819;28;20247;-46
2022/08/20 01:13:30;;;;;;;2.80;2.60;;;26.20;57.10;;;;;;4952796;28;20964;-45
2022/08/20 01:15:58;;;;;;;2.63;2.43;;;26.10;57.10;;;;;;4949714;28;20489;-46
2022/08/20 01:18:26;;;;;;;3.07;2.10;;;26.20;57.10;;;;;;4952935;28;20582;-48
2022/08/20 01:20:58;;;;;;;2.50;2.30;;;26.20;56.90;;;;;;4952940;29;20455;-49
2022/08/20 01:23:45;;;;;;;2.97;2.73;;;26.20;57.00;;;;;;4953498;28;20479;-45
2022/08/20 01:26:23;;;;;;;2.50;2.10;;;26.40;56.30;;;;;;4951938;28;20985;-46
2022/08/20 01:28:57;;;;;;;2.17;2.07;;;26.40;56.50;;;;;;4952849;28;20859;-50
2022/08/20 01:31:32;;;;;;;2.10;2.00;;;26.40;56.50;;;;;;4953168;28;20452;-46
2022/08/20 01:34:00;;;;;;;2.13;1.93;;;26.40;56.30;;;;;;4954489;29;20446;-46
2022/08/20 01:36:39;;;;;;;2.67;2.40;;;26.50;56.10;;;;;;4951513;28;21073;-49
2022/08/20 01:39:07;;;;;;;3.07;1.80;;;26.60;55.90;;;;;;4953329;28;20459;-47
2022/08/20 01:41:42;;;;;;;2.70;2.50;;;26.40;56.30;;;;;;4955483;29;20537;-46
2022/08/20 01:44:09;;;;;;;2.60;2.30;;;26.50;56.20;;;;;;4952587;28;20578;-45
2022/08/20 01:46:38;;;;;;;3.20;2.50;;;26.60;55.70;;;;;;4954153;28;20452;-45
2022/08/20 01:49:14;;;;;;;3.40;2.23;;;26.50;55.70;;;;;;4952557;28;20795;-46
2022/08/20 01:51:41;;;;;;;2.90;2.30;;;26.50;55.90;;;;;;4951813;28;20471;-47
2022/08/20 01:54:10;;;;;;;3.40;2.47;;;26.50;55.90;;;;;;4954790;29;20423;-45
2022/08/20 01:56:55;;;;;;;2.47;2.27;;;26.50;56.10;;;;;;4954009;28;20965;-47
2022/08/20 01:59:21;;;;;;;5.93;2.60;;;26.40;56.30;;;;;;4951968;28;20456;-48
2022/08/20 02:01:47;;;;;;;2.70;2.50;;;26.20;56.80;;;;;;4953615;28;21313;-49
2022/08/20 02:04:13;;;;;;;2.80;2.60;;;26.20;57.00;;;;;;4953560;28;20452;-48
2022/08/20 02:06:43;;;;;;;3.27;3.07;;;26.20;56.90;;;;;;4952010;28;20637;-46
2022/08/20 02:09:09;;;;;;;2.93;2.73;;;26.40;56.50;;;;;;4952052;28;20447;-45
2022/08/20 02:11:36;;;;;;;3.00;2.80;;;26.40;56.50;;;;;;4953342;28;20429;-45
2022/08/20 02:14:05;;;;;;;6.07;2.97;;;26.40;56.50;;;;;;4952730;28;20479;-47
2022/08/20 02:16:36;;;;;;;2.40;2.30;;;26.40;56.50;;;;;;4950018;28;20539;-45
2022/08/20 02:19:08;;;;;;;3.17;2.90;;;26.30;56.90;;;;;;4952449;28;20486;-45
2022/08/20 02:21:36;;;;;;;3.13;2.93;;;26.40;56.80;;;;;;4953544;28;20447;-45
2022/08/20 02:24:03;;;;;;;3.43;3.07;;;26.40;56.80;;;;;;4953517;28;20451;-46
2022/08/20 02:26:29;;;;;;;4.63;4.23;;;26.30;56.70;;;;;;4951844;28;20454;-49
2022/08/20 02:28:56;;;;;;;3.77;3.50;;;26.30;56.90;;;;;;4953304;28;20539;-45
2022/08/20 02:31:22;;;;;;;3.60;3.30;;;26.20;57.00;;;;;;4953905;29;20555;-46
2022/08/20 02:33:48;;;;;;;4.40;3.67;;;26.30;57.00;;;;;;4949227;28;20487;-46
2022/08/20 02:36:16;;;;;;;4.50;4.20;;;26.30;57.00;;;;;;4952336;28;20505;-46
2022/08/20 02:38:42;;;;;;;4.70;4.30;;;26.40;56.90;;;;;;4954007;29;20550;-46
2022/08/20 02:41:09;;;;;;;3.93;3.50;;;26.30;57.00;;;;;;4952952;28;20809;-45
2022/08/20 02:43:36;;;;;;;4.30;3.90;;;26.30;57.20;;;;;;4950249;28;20196;-46
2022/08/20 02:46:03;;;;;;;9.13;3.90;;;26.30;57.00;;;;;;4953290;29;20428;-45
2022/08/20 02:48:30;;;;;;;7.47;4.13;;;26.30;57.00;;;;;;4953979;28;20933;-45
2022/08/20 02:51:00;;;;;;;4.70;4.30;;;26.20;57.10;;;;;;4952347;28;20446;-47
2022/08/20 02:53:28;;;;;;;4.27;3.97;;;26.10;57.30;;;;;;4953070;28;20478;-46
2022/08/20 02:55:54;;;;;;;5.13;4.63;;;26.10;57.40;;;;;;4953248;29;20427;-45
2022/08/20 02:58:20;;;;;;;4.03;3.73;;;26.20;57.30;;;;;;4953287;28;20529;-46
2022/08/20 03:00:47;;;;;;;4.80;4.50;;;26.10;57.40;;;;;;4950038;28;20455;-46
2022/08/20 03:03:14;;;;;;;4.20;3.90;;;26.10;57.50;;;;;;4954013;29;20503;-45
2022/08/20 03:05:41;;;;;;;7.03;4.30;;;26.10;57.40;;;;;;4950546;28;20539;-46
2022/08/20 03:08:09;;;;;;;3.80;3.50;;;26.10;57.40;;;;;;4952662;28;20451;-45
2022/08/20 03:10:36;;;;;;;4.77;4.37;;;26.10;57.50;;;;;;4952444;28;20935;-45
2022/08/20 03:13:03;;;;;;;5.33;4.93;;;26.20;57.40;;;;;;4949649;28;20673;-46
2022/08/20 03:15:30;;;;;;;5.30;4.90;;;26.20;57.30;;;;;;4951323;28;20474;-46
2022/08/20 03:17:56;;;;;;;5.40;4.90;;;26.20;57.40;;;;;;4952384;28;20495;-49
2022/08/20 03:20:23;;;;;;;6.33;4.93;;;26.20;57.40;;;;;;4950179;28;20470;-47
2022/08/20 03:22:49;;;;;;;5.37;4.97;;;26.20;57.30;;;;;;4951524;28;20204;-47
2022/08/20 03:25:15;;;;;;;4.63;4.33;;;26.00;57.80;;;;;;4952570;29;20928;-49
2022/08/20 03:27:41;;;;;;;5.80;5.40;;;25.90;58.20;;;;;;4952371;28;20224;-47
2022/08/20 03:30:10;;;;;;;5.10;4.67;;;25.80;58.40;;;;;;4951399;28;20455;-48
2022/08/20 03:32:36;;;;;;;5.03;4.63;;;25.80;58.50;;;;;;4950869;28;20443;-45
2022/08/20 03:35:03;;;;;;;5.80;5.30;;;25.80;58.50;;;;;;4949506;29;21244;-49
2022/08/20 03:37:34;;;;;;;5.17;4.70;;;25.80;58.40;;;;;;4934134;29;20913;-46
2022/08/20 03:40:03;;;;;;;5.00;4.70;;;25.90;58.20;;;;;;4942869;28;20456;-49
2022/08/20 03:42:30;;;;;;;5.07;4.67;;;25.90;58.10;;;;;;4949497;28;20871;-49
2022/08/20 03:44:55;;;;;;;5.97;5.47;;;26.00;57.80;;;;;;4952032;29;20519;-47
2022/08/20 03:47:21;;;;;;;4.90;4.60;;;26.10;57.50;;;;;;4952244;28;20531;-49
2022/08/20 03:49:46;;;;;;;5.80;5.40;;;26.00;57.80;;;;;;4948636;28;20719;-46
2022/08/20 03:52:12;;;;;;;7.33;5.80;;;25.90;58.00;;;;;;4951300;28;20241;-48
2022/08/20 03:54:37;;;;;;;5.63;5.23;;;25.90;58.10;;;;;;4951297;28;20199;-48
2022/08/20 03:57:05;;;;;;;7.60;4.97;;;26.10;57.40;;;;;;4951440;28;20251;-47
2022/08/20 03:59:31;;;;;;;12.30;6.23;;;26.20;57.30;;;;;;4951400;28;20196;-46
2022/08/20 04:01:58;;;;;;;6.10;5.07;;;26.20;57.30;;;;;;4953079;29;20438;-46
2022/08/20 04:04:24;;;;;;;5.27;4.57;;;26.30;57.30;;;;;;4950796;28;20448;-50
2022/08/20 04:06:50;;;;;;;5.00;4.53;;;26.20;57.30;;;;;;4950212;28;20443;-48
2022/08/20 04:09:16;;;;;;;5.20;4.80;;;26.20;57.30;;;;;;4948084;28;20452;-48
2022/08/20 04:11:42;;;;;;;5.27;4.87;;;26.20;57.30;;;;;;4952303;28;20319;-47
2022/08/20 04:14:10;;;;;;;5.00;4.50;;;26.20;57.10;;;;;;4950701;28;20236;-49
2022/08/20 04:16:36;;;;;;;4.93;4.47;;;26.20;57.10;;;;;;4951128;28;20525;-47
2022/08/20 04:19:03;;;;;;;5.20;4.80;;;26.20;57.30;;;;;;4950498;28;20495;-46
2022/08/20 04:21:33;;;;;;;4.50;4.10;;;26.10;57.40;;;;;;4951043;28;20505;-49
2022/08/20 04:24:03;;;;;;;5.30;4.90;;;26.10;57.40;;;;;;4950989;28;20440;-49
2022/08/20 04:26:30;;;;;;;5.60;5.00;;;26.10;57.50;;;;;;4951142;28;20458;-49
2022/08/20 04:28:56;;;;;;;7.00;6.30;;;26.10;57.50;;;;;;4951887;29;20791;-49
2022/08/20 04:31:31;;;;;;;6.00;5.40;;;26.10;57.40;;;;;;4951622;28;20435;-49
2022/08/20 04:33:56;;;;;;;4.90;4.60;;;26.00;57.00;;;;;;4950912;28;20607;-47
2022/08/20 04:36:23;;;;;;;4.97;4.57;;;25.90;58.10;;;;;;4950127;28;20538;-46
2022/08/20 04:38:49;;;;;;;4.60;4.30;;;25.80;58.20;;;;;;4950478;28;20232;-49
2022/08/20 04:41:14;;;;;;;4.93;4.33;;;25.70;58.40;;;;;;4955706;28;20439;-49
2022/08/20 04:43:40;;;;;;;5.33;4.30;;;25.70;58.10;;;;;;4955022;28;20208;-49
2022/08/20 04:46:10;;;;;;;5.10;4.70;;;25.70;58.40;;;;;;4954620;28;20223;-48
2022/08/20 04:48:38;;;;;;;4.37;4.07;;;25.80;58.70;;;;;;4955382;28;20274;-48
2022/08/20 04:51:05;;;;;;;6.40;4.20;;;25.80;58.40;;;;;;4954625;28;20813;-49
2022/08/20 04:53:31;;;;;;;5.30;4.90;;;25.80;58.20;;;;;;4952650;28;20482;-48
2022/08/20 04:55:58;;;;;;;4.53;4.13;;;25.80;58.20;;;;;;4949681;29;20815;-49
2022/08/20 04:58:32;;;;;;;4.70;3.90;;;25.90;58.10;;;;;;4955140;28;20231;-49
2022/08/20 05:01:00;;;;;;;4.40;4.00;;;25.90;58.00;;;;;;4947425;28;21005;-50
2022/08/20 05:03:27;;;;;;;4.60;4.20;;;25.90;58.10;;;;;;4945154;28;20440;-49
2022/08/20 05:05:52;;;;;;;4.30;4.00;;;25.90;57.90;;;;;;4943494;28;20444;-48
2022/08/20 05:08:21;;;;;;;4.73;4.33;;;25.90;57.90;;;;;;4946521;29;20444;-50
2022/08/20 05:10:48;;;;;;;5.57;5.17;;;25.90;58.00;;;;;;4948213;28;20196;-49
2022/08/20 05:13:13;;;;;;;4.80;4.40;;;25.90;57.80;;;;;;4948682;28;20502;-50
2022/08/20 05:15:39;;;;;;;4.17;3.83;;;25.90;57.70;;;;;;4943723;28;20527;-48
2022/08/20 05:18:06;;;;;;;4.53;3.90;;;25.90;57.90;;;;;;4947259;28;20223;-50
2022/08/20 05:20:38;;;;;;;4.40;4.10;;;25.90;58.10;;;;;;4944888;28;20699;-49
2022/08/20 05:23:05;;;;;;;5.23;4.73;;;25.80;57.90;;;;;;4945356;28;20451;-49
2022/08/20 05:25:31;;;;;;;4.90;4.20;;;25.80;58.20;;;;;;4926988;29;22505;-47
2022/08/20 05:28:04;;;;;;;4.67;4.27;;;25.80;58.30;;;;;;4944623;28;20491;-49
2022/08/20 05:30:32;;;;;;;5.40;4.90;;;25.80;58.40;;;;;;4943593;28;20188;-50
2022/08/20 05:32:59;;;;;;;5.83;5.33;;;25.80;58.20;;;;;;4947340;28;20450;-50
2022/08/20 05:35:26;;;;;;;4.30;4.00;;;25.70;58.40;;;;;;4952702;28;20828;-47
2022/08/20 05:37:52;;;;;;;6.33;5.73;;;25.60;59.30;;;;;;4946040;29;20492;-48
2022/08/20 05:40:18;;;;;;;5.83;5.30;;;25.60;58.80;;;;;;4945568;28;20451;-48
2022/08/20 05:42:44;;;;;;;7.13;6.57;;;25.60;58.50;;;;;;4949047;28;20490;-47
2022/08/20 05:45:10;;;;;;;8.00;7.03;;;25.60;58.50;;;;;;4944205;28;20884;-44
2022/08/20 05:47:39;;;;;;;7.00;6.40;;;25.60;58.40;;;;;;4942515;28;20192;-45
2022/08/20 05:50:06;;;;;;;7.40;6.80;;;25.60;58.70;;;;;;4943661;28;20932;-44
2022/08/20 05:52:32;;;;;;;7.70;6.40;;;25.50;59.00;;;;;;4946627;28;20452;-44
2022/08/20 05:54:58;;;;;;;5.80;5.30;;;25.50;59.10;;;;;;4946188;28;20459;-45
2022/08/20 05:57:23;;;;;;;4.60;4.20;;;25.50;59.00;;;;;;4948022;28;20228;-46
2022/08/20 05:59:49;;;;;;;5.63;5.23;;;25.60;59.00;;;;;;4941971;28;20204;-45
2022/08/20 06:04:58;;;;;;;6.60;6.00;;;25.50;59.00;;;;;;4944360;28;20207;-45
2022/08/20 06:07:24;;;;;;;5.93;5.50;;;25.50;59.00;;;;;;4945000;28;20448;-44
2022/08/20 06:09:50;;;;;;;3.90;3.60;;;25.60;59.00;;;;;;4951425;28;20192;-45
2022/08/20 06:12:16;;;;;;;5.10;4.70;;;25.60;58.80;;;;;;4949514;28;20274;-44
2022/08/20 06:14:43;;;;;;;4.80;4.50;;;25.60;58.70;;;;;;4941647;28;20707;-46
2022/08/20 06:17:12;;;;;;;4.10;3.70;;;25.60;58.70;;;;;;4949813;28;20479;-45
2022/08/20 06:19:38;;;;;;;4.43;3.70;;;25.60;58.80;;;;;;4949619;28;20447;-44
2022/08/20 06:22:05;;;;;;;4.47;4.17;;;25.70;58.70;;;;;;4949892;28;20440;-45
2022/08/20 06:24:31;;;;;;;3.80;3.50;;;25.70;58.60;;;;;;4941307;28;20192;-44
2022/08/20 06:26:58;;;;;;;4.73;4.20;;;25.70;58.60;;;;;;4947970;28;20586;-46
2022/08/20 06:29:25;;;;;;;4.80;3.70;;;25.60;58.60;;;;;;4944839;28;20193;-47
2022/08/20 06:31:50;;;;;;;4.10;3.80;;;25.50;59.20;;;;;;4953490;29;20935;-44
2022/08/20 06:34:17;;;;;;;4.47;4.17;;;25.50;59.30;;;;;;4941860;28;20462;-47
2022/08/20 06:36:45;;;;;;;3.83;3.53;;;25.50;59.30;;;;;;4943417;28;20223;-45
2022/08/20 06:39:11;;;;;;;4.17;3.77;;;25.50;59.40;;;;;;4941688;28;20582;-46
2022/08/20 06:41:37;;;;;;;4.17;3.77;;;25.60;59.30;;;;;;4947341;28;20439;-46
2022/08/20 06:44:06;;;;;;;3.53;3.23;;;25.70;59.10;;;;;;4945443;28;20444;-45
2022/08/20 06:46:35;;;;;;;4.10;3.70;;;25.80;59.00;;;;;;4944403;28;20203;-44
2022/08/20 06:49:02;;;;;;;3.70;3.40;;;25.90;58.80;;;;;;4947717;28;20928;-44
2022/08/20 06:51:28;;;;;;;5.30;4.00;;;26.00;58.60;;;;;;4949515;28;20454;-44
2022/08/20 06:53:54;;;;;;;5.53;4.90;;;26.10;58.50;;;;;;4948735;28;20451;-45
2022/08/20 06:56:20;;;;;;;3.80;3.50;;;26.10;58.50;;;;;;4950591;28;20483;-46
2022/08/20 06:58:46;;;;;;;7.20;5.03;;;26.20;58.60;;;;;;4944007;28;20483;-45
2022/08/20 07:01:12;;;;;;;3.63;3.40;;;26.20;58.50;;;;;;4949989;28;20732;-44
2022/08/20 07:03:41;;;;;;;5.03;3.70;;;26.30;58.40;;;;;;4945701;28;20662;-45
2022/08/20 07:06:08;;;;;;;3.50;3.20;;;26.40;58.50;;;;;;4946616;28;20506;-45
2022/08/20 07:08:34;;;;;;;3.97;3.47;;;26.40;58.40;;;;;;4952608;29;20510;-46
2022/08/20 07:11:00;;;;;;;3.60;3.40;;;26.40;58.10;;;;;;4939235;28;22048;-47
2022/08/20 07:13:27;;;;;;;3.80;3.60;;;26.40;58.00;;;;;;4942895;29;20472;-44
2022/08/20 07:15:53;;;;;;;3.30;3.03;;;26.40;58.10;;;;;;4942754;28;20887;-44
2022/08/20 07:18:19;;;;;;;3.63;3.17;;;26.40;58.20;;;;;;4949237;28;20586;-44
2022/08/20 07:20:45;;;;;;;3.60;3.30;;;26.50;58.00;;;;;;4946234;28;20943;-46
2022/08/20 07:23:11;;;;;;;3.17;2.70;;;26.50;57.80;;;;;;4948143;28;20463;-44
2022/08/20 07:25:39;;;;;;;3.40;3.20;;;26.50;57.90;;;;;;4944387;28;20452;-47
2022/08/20 07:28:17;;;;;;;3.30;3.10;;;26.50;57.80;;;;;;4950126;28;20188;-45
2022/08/20 07:33:29;;;;;;;3.37;3.17;;;26.60;57.70;;;;;;4951124;28;20507;-45
2022/08/20 07:36:00;;;;;;;4.10;3.70;;;26.70;57.80;;;;;;4948669;28;20451;-46
2022/08/20 07:38:28;;;;;;;3.57;3.23;;;26.60;58.10;;;;;;4953069;29;21097;-45
2022/08/20 07:41:00;;;;;;;3.03;2.67;;;26.60;58.60;;;;;;4950588;28;20466;-48
2022/08/20 07:43:28;;;;;;;3.70;3.40;;;26.60;58.80;;;;;;4948527;28;20444;-49
2022/08/20 07:45:57;;;;;;;4.33;4.00;;;26.70;59.00;;;;;;4948450;28;20444;-50
2022/08/20 07:48:24;;;;;;;3.60;2.90;;;26.60;59.20;;;;;;4952468;29;20439;-50
2022/08/20 07:50:51;;;;;;;3.40;3.07;;;26.70;59.40;;;;;;4951192;28;20447;-47
2022/08/20 07:53:17;;;;;;;3.77;3.57;;;26.70;59.10;;;;;;4948883;28;20450;-48
2022/08/20 07:55:43;;;;;;;4.63;3.67;;;26.70;59.00;;;;;;4950000;28;20448;-46
2022/08/20 07:58:12;;;;;;;3.50;3.13;;;26.80;58.90;;;;;;4948345;28;20235;-50
2022/08/20 08:00:38;;;;;;;4.33;3.93;;;26.80;59.00;;;;;;4948606;29;20444;-49
2022/08/20 08:03:05;;;;;;;4.10;3.70;;;26.90;59.10;;;;;;4950472;28;20939;-47
2022/08/20 08:05:37;;;;;;;4.20;3.90;;;26.90;59.50;;;;;;4949515;28;20439;-48
2022/08/20 08:08:04;;;;;;;4.03;3.73;;;26.90;59.60;;;;;;4947527;28;21240;-48
2022/08/20 08:10:30;;;;;;;4.10;3.80;;;26.90;59.80;;;;;;4952237;29;20429;-47
2022/08/20 08:12:59;;;;;;;4.03;3.73;;;26.90;59.60;;;;;;4952746;29;20482;-49
2022/08/20 08:15:30;;;;;;;4.20;3.40;;;26.80;59.90;;;;;;4951299;28;20196;-46
2022/08/20 08:18:07;;;;;;;3.83;3.30;;;26.50;61.30;;;;;;4952593;29;20487;-49
2022/08/20 08:20:39;;;;;;;5.07;4.57;;;26.50;61.80;;;;;;4947487;29;20470;-46
2022/08/20 08:23:06;;;;;;;3.77;3.47;;;26.40;63.30;;;;;;4943268;29;20451;-48
2022/08/20 08:25:33;;;;;;;5.20;4.70;;;26.20;63.60;;;;;;4942076;29;20455;-46
2022/08/20 08:27:59;;;;;;;3.67;3.37;;;26.40;63.20;;;;;;4943731;29;20970;-46
2022/08/20 08:30:27;;;;;;;7.93;5.03;;;26.60;62.40;;;;;;4945519;28;20459;-46
2022/08/20 08:35:38;;;;;;;4.13;3.80;;;27.00;61.10;;;;;;4942119;28;20918;-46
2022/08/20 08:38:04;;;;;;;4.80;4.40;;;27.10;60.50;;;;;;4940329;28;20498;-47
2022/08/20 08:40:31;;;;;;;5.70;5.07;;;27.20;60.00;;;;;;4944104;28;20470;-47
2022/08/20 08:42:59;;;;;;;5.37;4.87;;;27.30;60.10;;;;;;4950585;28;20207;-45
2022/08/20 08:45:44;;;;;;;5.00;4.40;;;27.30;59.50;;;;;;4949513;28;20998;-48
2022/08/20 08:48:12;;;;;;;4.70;4.30;;;27.40;59.10;;;;;;4949584;28;20459;-46
2022/08/20 08:50:41;;;;;;;4.50;4.10;;;27.50;59.10;;;;;;4951133;28;20855;-46
2022/08/20 08:53:09;;;;;;;4.10;3.80;;;27.60;58.40;;;;;;4951795;28;20454;-45
2022/08/20 08:55:35;;;;;;;4.87;4.03;;;27.80;58.20;;;;;;4937897;28;20445;-48
2022/08/20 08:58:02;;;;;;;15.10;6.80;;;27.80;58.40;;;;;;4946190;28;20539;-47
2022/08/20 09:00:29;;;;;;;12.57;9.33;;;27.90;59.00;;;;;;4942422;28;20623;-47
2022/08/20 09:03:04;;;;;;;9.97;6.40;;;27.90;59.90;;;;;;4940309;28;20451;-47
2022/08/20 09:05:43;;;;;;;7.73;5.70;;;27.90;60.90;;;;;;4937712;28;20470;-47
2022/08/20 09:08:14;;;;;;;6.20;5.60;;;27.90;60.70;;;;;;4943021;28;20444;-46
2022/08/20 09:10:41;;;;;;;11.47;5.33;;;27.80;59.80;;;;;;4940005;28;20436;-51
2022/08/20 09:13:07;;;;;;;6.03;4.70;;;27.80;60.70;;;;;;4938008;28;20487;-49
2022/08/20 09:15:33;;;;;;;9.00;5.70;;;27.80;60.90;;;;;;4937034;28;20447;-48
2022/08/20 09:17:59;;;;;;;5.40;4.90;;;27.90;61.70;;;;;;4934590;28;20542;-47
2022/08/20 09:20:25;;;;;;;5.50;5.00;;;27.90;61.80;;;;;;4937650;28;20546;-48
2022/08/20 09:22:51;;;;;;;5.50;5.00;;;28.00;61.30;;;;;;4941359;28;20564;-49
2022/08/20 09:25:17;;;;;;;9.23;4.70;;;28.00;61.30;;;;;;4934618;28;20448;-47
2022/08/20 09:27:43;;;;;;;6.33;4.57;;;28.10;61.40;;;;;;4940634;28;20206;-48
2022/08/20 09:30:09;;;;;;;5.40;4.90;;;28.10;60.70;;;;;;4942309;28;20942;-48
2022/08/20 09:32:35;;;;;;;5.00;4.60;;;28.10;60.60;;;;;;4944503;28;20192;-48
2022/08/20 09:35:01;;;;;;;5.07;4.60;;;28.20;61.20;;;;;;4941774;28;20459;-48
2022/08/20 09:37:29;;;;;;;5.20;4.70;;;28.20;60.20;;;;;;4942853;28;21034;-50
2022/08/20 09:39:56;;;;;;;5.30;4.83;;;28.30;59.60;;;;;;4940634;28;20571;-45
2022/08/20 09:42:25;;;;;;;6.60;5.70;;;28.30;60.20;;;;;;4940822;28;20962;-46
2022/08/20 09:44:51;;;;;;;8.57;7.80;;;28.40;59.50;;;;;;4938113;28;20505;-48
2022/08/20 09:47:17;;;;;;;6.47;5.17;;;28.10;60.90;;;;;;4936491;28;20950;-45
2022/08/20 09:49:43;;;;;;;6.83;4.97;;;28.00;62.20;;;;;;4941177;28;20211;-50
2022/08/20 09:52:19;;;;;;;7.30;5.37;;;28.20;63.20;;;;;;4945061;28;20530;-45
2022/08/20 09:54:44;;;;;;;9.13;5.97;;;28.30;60.40;;;;;;4940415;28;20505;-46
2022/08/20 09:57:11;;;;;;;4.40;4.10;;;28.20;60.30;;;;;;4947312;28;20511;-47
2022/08/20 09:59:37;;;;;;;6.30;5.90;;;27.90;58.40;;;;;;4946728;28;21181;-47
2022/08/20 10:02:03;;;;;;;5.23;4.83;;;27.90;59.00;;;;;;4950872;28;20447;-45
2022/08/20 10:04:28;;;;;;;5.77;5.17;;;28.00;58.70;;;;;;4945477;28;20444;-46
2022/08/20 10:06:55;;;;;;;7.67;6.97;;;28.00;58.40;;;;;;4950740;28;20239;-45
2022/08/20 10:09:20;;;;;;;7.63;4.50;;;28.10;58.20;;;;;;4952906;28;20239;-48
2022/08/20 10:11:46;;;;;;;4.93;4.53;;;28.20;58.30;;;;;;4952117;28;20479;-45
2022/08/20 10:14:11;;;;;;;5.00;4.50;;;28.20;58.10;;;;;;4947751;28;20240;-49
2022/08/20 10:16:37;;;;;;;5.93;4.27;;;28.10;57.60;;;;;;4948185;28;20203;-50
2022/08/20 10:19:04;;;;;;;4.53;3.50;;;28.20;57.60;;;;;;4949454;28;20266;-50
2022/08/20 10:21:31;;;;;;;3.97;3.57;;;28.20;56.90;;;;;;4949894;28;20648;-49
2022/08/20 10:23:57;;;;;;;3.80;3.60;;;28.00;56.80;;;;;;4947823;28;20503;-47
2022/08/20 10:26:22;;;;;;;3.50;3.20;;;28.00;56.70;;;;;;4948362;28;20463;-50
2022/08/20 10:28:48;;;;;;;3.67;3.37;;;27.90;57.20;;;;;;4950013;28;20283;-49
2022/08/20 10:31:14;;;;;;;4.90;3.67;;;27.90;57.10;;;;;;4941355;28;20228;-48
2022/08/20 10:33:41;;;;;;;3.67;3.37;;;27.90;57.40;;;;;;4942708;28;20364;-50
2022/08/20 10:36:08;;;;;;;4.30;3.90;;;28.00;57.30;;;;;;4947926;28;21340;-49
2022/08/20 10:38:34;;;;;;;3.17;2.90;;;28.00;56.60;;;;;;4951317;28;20499;-46
2022/08/20 10:41:00;;;;;;;3.27;2.70;;;28.10;56.70;;;;;;4950122;28;20823;-50
2022/08/20 10:43:26;;;;;;;3.77;2.80;;;28.00;55.80;;;;;;4949908;28;20734;-48
2022/08/20 10:45:53;;;;;;;3.70;3.40;;;28.00;56.50;;;;;;4949205;28;20204;-47
2022/08/20 10:48:19;;;;;;;2.93;2.73;;;28.00;56.20;;;;;;4942459;28;20483;-49
2022/08/20 10:50:44;;;;;;;7.10;3.50;;;28.00;55.80;;;;;;4948327;28;20452;-50
2022/08/20 10:53:10;;;;;;;3.03;2.73;;;28.00;55.60;;;;;;4948117;28;20291;-47
2022/08/20 10:55:35;;;;;;;3.10;2.80;;;27.80;55.50;;;;;;4948442;28;20684;-45
2022/08/20 10:58:04;;;;;;;2.80;2.50;;;27.50;56.90;;;;;;4950599;28;20232;-49
2022/08/20 11:00:30;;;;;;;2.37;2.27;;;27.20;56.40;;;;;;4950732;28;20195;-45
2022/08/20 11:02:55;;;;;;;2.50;2.40;;;27.10;57.10;;;;;;4946503;28;20927;-49
2022/08/20 11:05:21;;;;;;;2.40;2.30;;;27.10;57.40;;;;;;4949091;28;20204;-49
2022/08/20 11:07:47;;;;;;;1.93;1.83;;;27.20;57.30;;;;;;4950357;28;20314;-45
2022/08/20 11:10:13;;;;;;;1.90;1.80;;;27.20;56.50;;;;;;4950791;29;20214;-45
2022/08/20 11:12:38;;;;;;;2.03;1.93;;;27.20;56.30;;;;;;4947813;28;21072;-46
2022/08/20 11:15:05;;;;;;;2.20;2.10;;;27.40;56.20;;;;;;4945548;28;20458;-46
2022/08/20 11:17:33;;;;;;;2.23;2.03;;;27.50;55.70;;;;;;4951417;28;20310;-45
2022/08/20 11:20:00;;;;;;;2.40;2.30;;;27.50;55.60;;;;;;4951618;28;20439;-45
2022/08/20 11:22:26;;;;;;;2.90;2.70;;;27.40;55.00;;;;;;4946895;28;20456;-46
2022/08/20 11:24:53;;;;;;;2.70;2.50;;;27.40;55.20;;;;;;4948982;28;20455;-49
2022/08/20 11:27:41;;;;;;;2.57;2.47;;;27.20;55.20;;;;;;4944873;28;20502;-45
2022/08/20 11:30:10;;;;;;;3.03;2.73;;;27.20;55.80;;;;;;4938721;28;21058;-49
2022/08/20 11:32:36;;;;;;;2.77;2.57;;;27.30;55.60;;;;;;4944054;28;20448;-45
2022/08/20 11:35:02;;;;;;;2.97;2.77;;;27.50;55.50;;;;;;4947420;28;20454;-47
2022/08/20 11:37:28;;;;;;;4.37;3.97;;;27.60;55.60;;;;;;4950839;28;20599;-45
2022/08/20 11:39:53;;;;;;;3.83;3.60;;;27.70;56.30;;;;;;4941668;29;20444;-45
2022/08/20 11:42:19;;;;;;;3.43;3.23;;;27.80;56.30;;;;;;4949132;28;20286;-46
2022/08/20 11:44:45;;;;;;;3.50;3.20;;;27.80;56.40;;;;;;4948925;28;20188;-45
2022/08/20 11:47:27;;;;;;;3.70;3.40;;;27.80;56.40;;;;;;4948314;28;20203;-48
2022/08/20 11:50:02;;;;;;;3.43;3.23;;;27.90;56.40;;;;;;4945386;28;20549;-46
2022/08/20 11:52:28;;;;;;;4.20;3.63;;;28.00;56.40;;;;;;4939904;28;20462;-45
2022/08/20 11:54:54;;;;;;;3.60;3.40;;;28.00;56.80;;;;;;4943497;29;20944;-47
2022/08/20 11:57:23;;;;;;;3.50;3.30;;;28.10;56.50;;;;;;4941120;28;20531;-45
2022/08/20 11:59:51;;;;;;;4.03;3.73;;;28.10;56.70;;;;;;4946812;28;20196;-49
2022/08/20 12:02:16;;;;;;;3.37;3.17;;;28.10;56.50;;;;;;4940805;28;20463;-45
2022/08/20 12:04:42;;;;;;;3.43;3.23;;;28.00;56.40;;;;;;4939738;28;20443;-45
2022/08/20 12:07:14;;;;;;;4.33;3.30;;;28.00;56.50;;;;;;4949880;29;20875;-47
2022/08/20 12:09:41;;;;;;;3.20;3.00;;;28.00;56.40;;;;;;4941366;28;20261;-46
2022/08/20 12:12:07;;;;;;;3.57;3.27;;;28.10;56.30;;;;;;4946511;28;20567;-45
2022/08/20 12:14:33;;;;;;;4.23;3.50;;;28.10;56.50;;;;;;4942227;28;20550;-48
2022/08/20 12:17:16;;;;;;;3.10;2.80;;;28.00;57.40;;;;;;4942881;28;21147;-45
2022/08/20 12:19:42;;;;;;;2.10;1.90;;;27.90;57.40;;;;;;4944929;28;20956;-46
2022/08/20 12:22:08;;;;;;;2.13;1.70;;;27.60;57.20;;;;;;4949788;28;20454;-45
2022/08/20 12:24:34;;;;;;;3.30;2.07;;;27.50;57.40;;;;;;4940890;28;20202;-45
2022/08/20 12:27:17;;;;;;;10.03;4.33;;;27.30;58.10;;;;;;4939879;28;20938;-45
2022/08/20 12:29:45;;;;;;;3.67;2.40;;;27.20;58.70;;;;;;4937197;28;20531;-45
2022/08/20 12:32:11;;;;;;;4.53;2.73;;;27.30;58.90;;;;;;4939397;28;20482;-47
2022/08/20 12:34:39;;;;;;;2.40;2.20;;;27.30;59.00;;;;;;4933609;28;20494;-49
2022/08/20 12:37:14;;;;;;;2.97;2.30;;;27.30;59.40;;;;;;4939187;28;20455;-45
2022/08/20 12:39:42;;;;;;;2.20;2.10;;;27.40;59.50;;;;;;4936921;28;20571;-47
2022/08/20 12:42:09;;;;;;;2.93;2.10;;;27.40;59.40;;;;;;4936041;28;21165;-45
2022/08/20 12:44:35;;;;;;;4.50;2.07;;;27.40;59.50;;;;;;4935654;28;20470;-49
2022/08/20 12:47:16;;;;;;;2.73;1.67;;;27.50;59.80;;;;;;4937982;28;20441;-45
2022/08/20 12:49:44;;;;;;;3.30;2.20;;;27.50;59.90;;;;;;4938385;28;20203;-45
2022/08/20 12:52:11;;;;;;;1.83;1.40;;;27.60;60.50;;;;;;4940067;28;20455;-49
2022/08/20 12:54:37;;;;;;;2.10;1.90;;;27.60;60.80;;;;;;4932514;28;20438;-47
2022/08/20 12:57:03;;;;;;;2.13;2.00;;;27.70;61.10;;;;;;4945579;28;20463;-45